Time;durP1;ratioP1;P1;durP2;ratioP2;P2;SDS_P1;SDS_P2;PMS_P1;PMS_P2;Temp;Humidity;BMP_temperature;BMP_pressure;BME280_temperature;BME280_humidity;BME280_pressure;Samples;Min_cycle;Max_cycle;Signal;HPM_P1;HPM_P2
2023/03/26 00:01:45;;;;;;;;;;;;;;;7.27;83.83;97831.31;5071613;28;19930;-83
2023/03/26 00:04:10;;;;;;;;;;;;;;;7.20;84.12;97831.50;5066847;28;19954;-83
2023/03/26 00:06:37;;;;;;;;;;;;;;;7.01;85.58;97830.25;5082610;28;20364;-83
2023/03/26 00:09:04;;;;;;;;;;;;;;;7.21;84.21;97830.44;5074960;28;19931;-82
2023/03/26 00:11:29;;;;;;;;;;;;;;;7.08;84.63;97825.53;5085421;28;19926;-83
2023/03/26 00:13:56;;;;;;;;;;;;;;;7.23;84.67;97833.66;5090231;28;19971;-82
2023/03/26 00:16:22;;;;;;;;;;;;;;;7.05;85.28;97836.69;5095620;28;19923;-83
2023/03/26 00:18:47;;;;;;;;;;;;;;;6.94;85.40;97832.31;5090497;28;19930;-83
2023/03/26 00:21:14;;;;;;;;;;;;;;;7.03;85.55;97828.16;5087818;28;20006;-83
2023/03/26 00:23:40;;;;;;;;;;;;;;;7.11;84.69;97834.84;5085401;28;19916;-82
2023/03/26 00:26:09;;;;;;;;;;;;;;;6.98;85.59;97836.06;5094167;28;19937;-82
2023/03/26 00:28:35;;;;;;;;;;;;;;;7.04;85.57;97829.75;5095431;28;19916;-82
2023/03/26 00:31:01;;;;;;;;;;;;;;;7.01;85.55;97832.13;5068935;28;19931;-82
2023/03/26 00:33:27;;;;;;;;;;;;;;;6.93;84.96;97817.44;5085581;28;19927;-82
2023/03/26 00:35:53;;;;;;;;;;;;;;;7.01;85.37;97819.63;5052421;28;19921;-82
2023/03/26 00:38:22;;;;;;;;;;;;;;;6.96;84.85;97816.94;5090530;28;19977;-82
2023/03/26 00:40:49;;;;;;;;;;;;;;;6.95;85.28;97830.44;5072079;28;19959;-82
2023/03/26 00:43:18;;;;;;;;;;;;;;;7.02;84.19;97818.59;5088659;28;20014;-82
2023/03/26 00:45:51;;;;;;;;;;;;;;;6.89;85.76;97821.66;5089926;28;19916;-82
2023/03/26 00:48:16;;;;;;;;;;;;;;;6.89;85.50;97819.00;5086231;28;19917;-82
2023/03/26 00:50:43;;;;;;;;;;;;;;;6.95;84.85;97820.63;5078495;28;19982;-82
2023/03/26 00:53:10;;;;;;;;;;;;;;;6.99;85.29;97824.38;5087088;28;20350;-82
2023/03/26 00:55:36;;;;;;;;;;;;;;;7.08;84.93;97819.44;5092971;28;19917;-82
2023/03/26 00:58:01;;;;;;;;;;;;;;;6.81;85.25;97822.09;5066325;28;19924;-82
2023/03/26 01:00:28;;;;;;;;;;;;;;;6.95;85.24;97822.50;5068635;28;21123;-82
2023/03/26 01:02:54;;;;;;;;;;;;;;;6.83;84.78;97827.97;5071535;28;19917;-82
2023/03/26 01:05:34;;;;;;;;;;;;;;;6.78;86.21;97823.41;5083950;28;20390;-82
2023/03/26 01:08:16;;;;;;;;;;;;;;;6.92;84.91;97812.41;5071844;28;19924;-82
2023/03/26 01:10:43;;;;;;;;;;;;;;;6.86;86.04;97814.19;5091400;28;20037;-82
2023/03/26 01:13:08;;;;;;;;;;;;;;;6.81;85.58;97812.28;5087959;28;19921;-82
2023/03/26 01:15:37;;;;;;;;;;;;;;;6.92;85.59;97817.69;5067029;28;19920;-82
2023/03/26 01:18:04;;;;;;;;;;;;;;;6.98;85.52;97822.81;5085604;28;19924;-82
2023/03/26 01:20:33;;;;;;;;;;;;;;;6.83;85.67;97809.38;5084058;28;19924;-82
2023/03/26 01:23:04;;;;;;;;;;;;;;;6.89;85.51;97811.03;5085902;28;19916;-82
2023/03/26 01:25:31;;;;;;;;;;;;;;;6.88;84.95;97813.94;5084219;28;19931;-82
2023/03/26 01:27:57;;;;;;;;;;;;;;;6.94;85.17;97807.63;5087796;28;19946;-82
2023/03/26 01:30:36;;;;;;;;;;;;;;;6.91;85.70;97800.97;5070201;28;19916;-82
2023/03/26 01:33:05;;;;;;;;;;;;;;;6.80;85.28;97820.50;5082240;28;19973;-82
2023/03/26 01:35:37;;;;;;;;;;;;;;;6.80;85.69;97810.69;5086714;28;19942;-81
2023/03/26 01:38:11;;;;;;;;;;;;;;;6.84;85.27;97805.66;5087416;28;19928;-82
2023/03/26 01:40:41;;;;;;;;;;;;;;;6.86;84.85;97814.19;5089907;28;19931;-82
2023/03/26 01:43:20;;;;;;;;;;;;;;;6.88;84.40;97809.41;5091416;28;20657;-82
2023/03/26 01:45:46;;;;;;;;;;;;;;;6.90;85.21;97803.88;5068553;28;19955;-82
2023/03/26 01:48:12;;;;;;;;;;;;;;;6.85;84.31;97796.69;5068084;28;19932;-82
2023/03/26 01:50:37;;;;;;;;;;;;;;;6.81;85.02;97799.00;5073453;28;19977;-82
2023/03/26 01:53:03;;;;;;;;;;;;;;;6.90;83.96;97799.41;5073594;28;19928;-82
2023/03/26 01:55:34;;;;;;;;;;;;;;;6.89;84.59;97804.94;5073264;28;19928;-81
2023/03/26 01:58:08;;;;;;;;;;;;;;;6.80;84.75;97800.06;5070400;28;19920;-82
2023/03/26 02:01:00;;;;;;;;;;;;;;;6.85;84.93;97796.69;5071017;28;20065;-82
2023/03/26 02:03:30;;;;;;;;;;;;;;;6.72;84.72;97792.56;5082154;28;19924;-82
2023/03/26 02:05:59;;;;;;;;;;;;;;;6.86;84.85;97803.56;5080709;28;19928;-82
2023/03/26 02:08:24;;;;;;;;;;;;;;;6.76;84.69;97806.13;5092648;28;19923;-82
2023/03/26 02:10:57;;;;;;;;;;;;;;;6.76;85.06;97804.28;5091704;28;19916;-82
2023/03/26 02:13:22;;;;;;;;;;;;;;;6.80;84.21;97789.47;5071631;28;19928;-82
2023/03/26 02:15:59;;;;;;;;;;;;;;;6.77;85.24;97807.75;5085426;28;19916;-82
2023/03/26 02:18:24;;;;;;;;;;;;;;;6.76;84.91;97811.44;5079905;28;19920;-82
2023/03/26 02:20:51;;;;;;;;;;;;;;;6.80;85.07;97813.34;5070522;28;19927;-82
2023/03/26 02:23:17;;;;;;;;;;;;;;;6.81;84.92;97795.59;5078417;28;19920;-81
2023/03/26 02:25:42;;;;;;;;;;;;;;;6.81;84.91;97798.22;5080477;28;19987;-81
2023/03/26 02:28:08;;;;;;;;;;;;;;;6.80;84.29;97796.63;5073524;28;20270;-82
2023/03/26 02:30:33;;;;;;;;;;;;;;;6.78;85.03;97798.72;5054147;28;19935;-81
2023/03/26 02:32:58;;;;;;;;;;;;;;;6.82;85.48;97808.59;5059867;28;19926;-81
2023/03/26 02:35:24;;;;;;;;;;;;;;;6.89;84.05;97799.63;5093133;28;19920;-81
2023/03/26 02:37:49;;;;;;;;;;;;;;;6.81;84.75;97801.66;5088111;28;20014;-81
2023/03/26 02:40:16;;;;;;;;;;;;;;;6.86;84.87;97792.97;5093081;28;19920;-81
2023/03/26 02:42:41;;;;;;;;;;;;;;;6.86;84.25;97795.63;5091758;28;20022;-82
2023/03/26 02:45:07;;;;;;;;;;;;;;;6.98;84.61;97800.78;5097155;28;19975;-81
2023/03/26 02:47:32;;;;;;;;;;;;;;;6.78;85.04;97799.53;5068099;28;19924;-81
2023/03/26 02:49:57;;;;;;;;;;;;;;;6.79;85.27;97793.16;5094595;28;19930;-81
2023/03/26 02:52:23;;;;;;;;;;;;;;;6.89;84.49;97804.94;5085436;28;19974;-81
2023/03/26 02:54:48;;;;;;;;;;;;;;;6.94;85.18;97799.69;5090523;28;20337;-81
2023/03/26 02:57:13;;;;;;;;;;;;;;;6.92;84.93;97797.28;5066798;28;20050;-81
2023/03/26 02:59:38;;;;;;;;;;;;;;;6.94;84.97;97797.03;5088804;28;19927;-82
2023/03/26 03:02:04;;;;;;;;;;;;;;;6.99;85.09;97797.09;5073859;28;19966;-81
2023/03/26 03:04:29;;;;;;;;;;;;;;;7.00;84.63;97796.81;5061693;28;19920;-81
2023/03/26 03:06:56;;;;;;;;;;;;;;;7.08;84.28;97795.56;5092574;28;20031;-82
2023/03/26 03:09:22;;;;;;;;;;;;;;;6.95;85.54;97794.13;5093891;28;19935;-82
2023/03/26 03:11:47;;;;;;;;;;;;;;;6.97;85.08;97799.97;5091823;28;19921;-81
2023/03/26 03:14:12;;;;;;;;;;;;;;;6.89;84.89;97789.00;5096874;28;20305;-82
2023/03/26 03:16:37;;;;;;;;;;;;;;;6.97;84.39;97785.94;5091063;28;20079;-82
2023/03/26 03:19:04;;;;;;;;;;;;;;;6.97;84.91;97792.00;5087456;28;19981;-82
2023/03/26 03:21:30;;;;;;;;;;;;;;;7.01;85.32;97787.78;5069550;28;19928;-81
2023/03/26 03:23:55;;;;;;;;;;;;;;;7.04;84.69;97797.13;5086441;28;19917;-81
2023/03/26 03:26:22;;;;;;;;;;;;;;;6.98;85.12;97790.97;5088014;28;19932;-81
2023/03/26 03:28:50;;;;;;;;;;;;;;;7.05;84.93;97788.91;5070687;28;19920;-82
2023/03/26 03:31:16;;;;;;;;;;;;;;;7.00;85.53;97791.53;5067940;28;19924;-82
2023/03/26 03:33:41;;;;;;;;;;;;;;;6.87;84.69;97781.31;5087508;28;19927;-82
2023/03/26 03:36:09;;;;;;;;;;;;;;;7.03;84.58;97784.91;5063621;28;19931;-83
2023/03/26 03:38:35;;;;;;;;;;;;;;;7.07;84.79;97781.50;5087696;28;19988;-82
2023/03/26 03:41:00;;;;;;;;;;;;;;;7.04;85.39;97776.69;5073961;28;21177;-82
2023/03/26 03:43:26;;;;;;;;;;;;;;;6.86;85.68;97779.69;5056740;28;19920;-82
2023/03/26 03:45:51;;;;;;;;;;;;;;;6.93;85.48;97782.16;5092280;28;19924;-82
2023/03/26 03:48:17;;;;;;;;;;;;;;;7.02;84.49;97778.00;5089825;28;19961;-82
2023/03/26 03:50:43;;;;;;;;;;;;;;;6.92;85.60;97781.38;5089412;28;20034;-82
2023/03/26 03:53:08;;;;;;;;;;;;;;;6.83;85.48;97774.91;5088688;28;19944;-82
2023/03/26 03:55:37;;;;;;;;;;;;;;;6.97;85.66;97784.06;5067506;28;19928;-82
2023/03/26 03:58:02;;;;;;;;;;;;;;;6.99;85.80;97781.94;5071131;28;20014;-82
2023/03/26 04:00:29;;;;;;;;;;;;;;;7.03;84.71;97775.13;5072264;28;20010;-82
2023/03/26 04:02:55;;;;;;;;;;;;;;;7.02;85.36;97778.00;5090517;28;19920;-82
2023/03/26 04:05:20;;;;;;;;;;;;;;;7.02;85.12;97778.00;5091592;28;20503;-82
2023/03/26 04:07:45;;;;;;;;;;;;;;;6.97;85.74;97786.72;5093617;28;20047;-82
2023/03/26 04:10:11;;;;;;;;;;;;;;;6.98;85.50;97785.66;5088049;28;19927;-82
2023/03/26 04:12:36;;;;;;;;;;;;;;;6.93;85.80;97780.31;5069183;28;19986;-82
2023/03/26 04:15:01;;;;;;;;;;;;;;;7.03;85.61;97785.72;5073016;28;20015;-80
2023/03/26 04:17:29;;;;;;;;;;;;;;;7.02;85.76;97780.66;5075970;28;20423;-81
2023/03/26 04:19:54;;;;;;;;;;;;;;;7.13;84.61;97785.00;5067039;28;19955;-81
2023/03/26 04:22:20;;;;;;;;;;;;;;;6.75;86.58;97784.09;5076284;28;19923;-80
2023/03/26 04:24:47;;;;;;;;;;;;;;;6.72;86.38;97783.81;5086479;28;19924;-80
2023/03/26 04:27:15;;;;;;;;;;;;;;;6.91;86.14;97771.00;5093823;28;19920;-81
2023/03/26 04:29:44;;;;;;;;;;;;;;;7.12;85.15;97772.81;5073666;28;19920;-81
2023/03/26 04:32:15;;;;;;;;;;;;;;;7.04;85.46;97759.97;5093205;28;19927;-81
2023/03/26 04:34:44;;;;;;;;;;;;;;;6.99;85.46;97762.59;5091443;28;19916;-81
2023/03/26 04:37:15;;;;;;;;;;;;;;;6.96;85.62;97755.13;5071969;28;20369;-80
2023/03/26 04:39:40;;;;;;;;;;;;;;;6.97;85.33;97754.88;5073368;28;19924;-80
2023/03/26 04:42:07;;;;;;;;;;;;;;;6.97;85.90;97754.09;5069180;28;19920;-80
2023/03/26 04:44:33;;;;;;;;;;;;;;;6.96;85.24;97747.97;5066141;28;19921;-82
2023/03/26 04:46:59;;;;;;;;;;;;;;;6.96;85.13;97747.97;5070074;28;19920;-82
2023/03/26 04:49:24;;;;;;;;;;;;;;;7.00;85.86;97735.81;5093703;28;19920;-82
2023/03/26 04:51:49;;;;;;;;;;;;;;;6.90;85.67;97741.03;5060559;28;19924;-82
2023/03/26 04:54:16;;;;;;;;;;;;;;;6.96;84.93;97742.69;5084107;28;19916;-82
2023/03/26 04:56:59;;;;;;;;;;;;;;;7.01;85.28;97740.03;5093634;28;19949;-82
2023/03/26 04:59:28;;;;;;;;;;;;;;;6.93;85.35;97729.91;5063602;28;19924;-82
2023/03/26 05:01:55;;;;;;;;;;;;;;;7.04;84.56;97731.59;5086256;28;19920;-83
2023/03/26 05:04:20;;;;;;;;;;;;;;;6.94;84.61;97718.25;5083715;28;20334;-82
2023/03/26 05:06:46;;;;;;;;;;;;;;;6.83;85.68;97721.88;5078467;28;20005;-82
2023/03/26 05:09:11;;;;;;;;;;;;;;;6.78;85.38;97711.22;5078226;28;19920;-81
2023/03/26 05:11:36;;;;;;;;;;;;;;;6.70;85.49;97716.97;5036126;28;19924;-81
2023/03/26 05:14:02;;;;;;;;;;;;;;;6.44;85.85;97707.19;5050812;28;19927;-81
2023/03/26 05:16:27;;;;;;;;;;;;;;;5.98;86.96;97700.56;5072259;28;21553;-81
2023/03/26 05:18:52;;;;;;;;;;;;;;;6.58;86.17;97695.13;5045784;28;19927;-81
2023/03/26 05:21:18;;;;;;;;;;;;;;;6.22;85.85;97698.47;5070693;28;19924;-81
2023/03/26 05:23:43;;;;;;;;;;;;;;;6.15;86.68;97696.00;5054207;28;19955;-81
2023/03/26 05:26:09;;;;;;;;;;;;;;;6.17;87.32;97701.03;5070772;28;19924;-81
2023/03/26 05:28:34;;;;;;;;;;;;;;;5.58;88.52;97695.53;5068246;28;20287;-81
2023/03/26 05:31:00;;;;;;;;;;;;;;;5.20;90.30;97698.97;5052072;28;20032;-81
2023/03/26 05:33:25;;;;;;;;;;;;;;;5.65;90.59;97696.16;5070734;28;19987;-81
2023/03/26 05:36:01;;;;;;;;;;;;;;;5.44;91.30;97696.91;5068520;28;19928;-80
2023/03/26 05:38:27;;;;;;;;;;;;;;;5.53;89.79;97690.16;5071529;28;19932;-81
2023/03/26 05:41:02;;;;;;;;;;;;;;;5.40;92.79;97689.69;5053124;28;20644;-81
2023/03/26 05:43:28;;;;;;;;;;;;;;;5.50;91.50;97685.38;5038895;28;20014;-80
2023/03/26 05:45:53;;;;;;;;;;;;;;;5.43;91.29;97679.47;5050407;28;19920;-80
2023/03/26 05:48:20;;;;;;;;;;;;;;;5.44;93.55;97683.69;5072594;28;20897;-80
2023/03/26 05:50:46;;;;;;;;;;;;;;;5.50;92.01;97684.56;5069158;28;21250;-81
2023/03/26 05:53:12;;;;;;;;;;;;;;;5.92;91.05;97689.09;5069463;28;19923;-81
2023/03/26 05:55:39;;;;;;;;;;;;;;;5.47;92.33;97679.75;5049249;28;20031;-81
2023/03/26 05:58:05;;;;;;;;;;;;;;;5.43;92.49;97676.81;5038945;28;20408;-80
2023/03/26 06:00:30;;;;;;;;;;;;;;;5.51;93.65;97681.66;5070400;28;19927;-81
2023/03/26 06:02:55;;;;;;;;;;;;;;;6.13;90.92;97673.47;5034003;28;20010;-81
2023/03/26 06:05:21;;;;;;;;;;;;;;;6.36;88.99;97679.25;5054382;28;19935;-81
2023/03/26 06:07:46;;;;;;;;;;;;;;;6.54;88.16;97681.56;5051335;28;21935;-81
2023/03/26 06:10:12;;;;;;;;;;;;;;;6.21;90.21;97673.81;5053975;28;19924;-80
2023/03/26 06:12:37;;;;;;;;;;;;;;;6.58;89.04;97671.25;5049899;28;21193;-81
2023/03/26 06:15:02;;;;;;;;;;;;;;;6.49;89.56;97673.56;5054204;28;19951;-81
2023/03/26 06:17:28;;;;;;;;;;;;;;;6.78;88.01;97671.44;5066426;28;19971;-81
2023/03/26 06:19:53;;;;;;;;;;;;;;;6.87;87.71;97659.31;5074381;28;19932;-81
2023/03/26 06:22:18;;;;;;;;;;;;;;;7.00;87.04;97666.03;5069869;28;19949;-81
2023/03/26 06:24:44;;;;;;;;;;;;;;;6.68;88.79;97661.53;5054986;28;19920;-81
2023/03/26 06:27:09;;;;;;;;;;;;;;;6.96;86.81;97657.00;5073599;28;19971;-81
2023/03/26 06:29:34;;;;;;;;;;;;;;;7.06;87.11;97654.41;5055898;28;19931;-81
2023/03/26 06:32:00;;;;;;;;;;;;;;;7.12;86.01;97659.50;5070879;28;19920;-80
2023/03/26 06:34:25;;;;;;;;;;;;;;;7.16;85.65;97657.94;5076186;28;20400;-81
2023/03/26 06:36:51;;;;;;;;;;;;;;;7.23;86.16;97653.19;5051087;28;20589;-81
2023/03/26 06:39:17;;;;;;;;;;;;;;;7.18;86.43;97650.53;5057441;28;20017;-81
2023/03/26 06:41:42;;;;;;;;;;;;;;;7.24;86.23;97648.69;5059159;28;19931;-81
2023/03/26 06:44:07;;;;;;;;;;;;;;;7.28;85.26;97637.31;5055092;28;20375;-81
2023/03/26 06:46:33;;;;;;;;;;;;;;;7.26;85.81;97646.56;5053082;28;19924;-81
2023/03/26 06:48:58;;;;;;;;;;;;;;;7.22;86.27;97645.50;5038093;28;20009;-80
2023/03/26 06:51:23;;;;;;;;;;;;;;;7.27;85.40;97637.56;5054935;28;19920;-81
2023/03/26 06:53:49;;;;;;;;;;;;;;;7.34;86.27;97640.78;5051265;28;20402;-81
2023/03/26 06:56:14;;;;;;;;;;;;;;;7.31;86.37;97644.78;5054865;28;20689;-81
2023/03/26 06:58:40;;;;;;;;;;;;;;;7.24;85.80;97648.69;5071350;28;19927;-81
2023/03/26 07:01:05;;;;;;;;;;;;;;;7.23;86.71;97653.19;5071596;28;20334;-81
2023/03/26 07:03:30;;;;;;;;;;;;;;;7.19;85.67;97657.41;5067885;28;19928;-81
2023/03/26 07:05:55;;;;;;;;;;;;;;;7.22;86.52;97656.13;5040043;28;19920;-81
2023/03/26 07:08:21;;;;;;;;;;;;;;;7.28;85.85;97655.09;5053570;28;20703;-81
2023/03/26 07:10:46;;;;;;;;;;;;;;;7.28;85.77;97647.13;5070749;28;19927;-82
2023/03/26 07:13:11;;;;;;;;;;;;;;;7.26;86.40;97643.94;5055231;28;19934;-83
2023/03/26 07:15:36;;;;;;;;;;;;;;;7.27;86.19;97645.53;5041004;28;19920;-83
2023/03/26 07:18:02;;;;;;;;;;;;;;;7.26;86.93;97646.56;5072860;28;20434;-83
2023/03/26 07:20:27;;;;;;;;;;;;;;;7.24;86.80;97636.22;5074456;28;19927;-83
2023/03/26 07:22:53;;;;;;;;;;;;;;;7.14;86.77;97630.84;5076447;28;20057;-83
2023/03/26 07:25:18;;;;;;;;;;;;;;;7.20;87.57;97631.69;5059526;28;19920;-83
2023/03/26 07:27:44;;;;;;;;;;;;;;;7.30;86.62;97619.28;5077268;28;19992;-83
2023/03/26 07:30:09;;;;;;;;;;;;;;;7.33;86.37;97610.00;5076567;28;19977;-83
2023/03/26 07:32:34;;;;;;;;;;;;;;;7.35;87.16;97613.19;5079613;28;19924;-83
2023/03/26 07:35:13;;;;;;;;;;;;;;;7.38;86.50;97613.47;5075816;28;19924;-83
2023/03/26 07:37:41;;;;;;;;;;;;;;;7.46;86.41;97610.34;5056431;28;19920;-83
2023/03/26 07:40:14;;;;;;;;;;;;;;;7.49;86.62;97615.13;5076271;28;19943;-83
2023/03/26 07:42:45;;;;;;;;;;;;;;;7.50;86.64;97608.75;5080989;28;19955;-83
2023/03/26 07:45:17;;;;;;;;;;;;;;;7.51;86.92;97609.56;5079832;28;19924;-83
2023/03/26 07:47:43;;;;;;;;;;;;;;;7.67;85.85;97602.44;5057820;28;19955;-82
2023/03/26 07:50:14;;;;;;;;;;;;;;;7.72;85.86;97600.63;5059064;28;19928;-82
2023/03/26 07:52:39;;;;;;;;;;;;;;;7.70;85.81;97605.38;5056935;28;19946;-83
2023/03/26 07:55:05;;;;;;;;;;;;;;;7.69;85.65;97603.78;5052538;28;19928;-82
2023/03/26 07:57:33;;;;;;;;;;;;;;;7.68;86.24;97604.06;5044560;28;19954;-82
2023/03/26 08:00:11;;;;;;;;;;;;;;;7.78;85.54;97602.22;5059158;28;19924;-82
2023/03/26 08:02:55;;;;;;;;;;;;;;;7.84;84.75;97593.22;5076045;28;20398;-82
2023/03/26 08:05:32;;;;;;;;;;;;;;;7.94;84.88;97595.09;5072073;28;19928;-82
2023/03/26 08:08:12;;;;;;;;;;;;;;;8.04;85.28;97584.50;5047907;28;19921;-83
2023/03/26 08:10:44;;;;;;;;;;;;;;;8.14;84.11;97588.00;5053182;28;19920;-83
2023/03/26 08:13:27;;;;;;;;;;;;;;;8.03;84.32;97583.72;5074063;28;19924;-82
2023/03/26 08:16:15;;;;;;;;;;;;;;;7.96;85.83;97587.66;5048741;28;19978;-82
2023/03/26 08:18:40;;;;;;;;;;;;;;;8.03;85.35;97580.25;5057941;28;20009;-82
2023/03/26 08:21:12;;;;;;;;;;;;;;;7.98;85.36;97589.00;5072253;28;19924;-82
2023/03/26 08:23:50;;;;;;;;;;;;;;;7.95;86.16;97591.41;5073314;28;19938;-82
2023/03/26 08:26:26;;;;;;;;;;;;;;;8.11;84.51;97599.13;5071608;28;19923;-82
2023/03/26 08:29:07;;;;;;;;;;;;;;;8.22;84.08;97599.94;5050231;28;20219;-82
2023/03/26 08:31:34;;;;;;;;;;;;;;;8.20;83.88;97597.56;5070189;28;19942;-82
2023/03/26 08:33:59;;;;;;;;;;;;;;;8.07;84.30;97592.75;5055421;28;19955;-82
2023/03/26 08:36:25;;;;;;;;;;;;;;;8.27;84.33;97587.50;5069662;28;19982;-82
2023/03/26 08:38:51;;;;;;;;;;;;;;;8.32;84.17;97586.72;5073474;28;19967;-82
2023/03/26 08:41:31;;;;;;;;;;;;;;;8.29;84.10;97582.72;5055339;28;20375;-82
2023/03/26 08:44:09;;;;;;;;;;;;;;;8.28;84.00;97586.44;5053691;28;19924;-82
2023/03/26 08:46:48;;;;;;;;;;;;;;;8.32;84.71;97573.44;5068781;28;19924;-82
2023/03/26 08:49:25;;;;;;;;;;;;;;;8.39;84.56;97571.28;5075521;28;20050;-82
2023/03/26 08:52:15;;;;;;;;;;;;;;;8.29;84.00;97565.97;5051193;28;19968;-82
2023/03/26 08:54:40;;;;;;;;;;;;;;;8.37;85.08;97562.78;5071273;28;20307;-82
2023/03/26 08:57:08;;;;;;;;;;;;;;;8.49;83.16;97560.66;5072918;28;19939;-82
2023/03/26 08:59:52;;;;;;;;;;;;;;;8.52;87.11;97565.44;5054154;28;19929;-82
2023/03/26 09:02:30;;;;;;;;;;;;;;;8.64;83.17;97565.16;5051687;28;19924;-82
2023/03/26 09:05:14;;;;;;;;;;;;;;;8.68;85.21;97552.94;5050059;28;19923;-82
2023/03/26 09:08:05;;;;;;;;;;;;;;;8.82;84.04;97546.00;5068347;28;19927;-81
2023/03/26 09:10:51;;;;;;;;;;;;;;;8.98;81.44;97537.72;5072480;28;19920;-81
2023/03/26 09:13:34;;;;;;;;;;;;;;;9.04;81.78;97541.19;5072573;28;20376;-81
2023/03/26 09:16:19;;;;;;;;;;;;;;;9.11;80.94;97538.22;5058840;28;19928;-81
2023/03/26 09:18:50;;;;;;;;;;;;;;;9.12;82.76;97537.16;5069770;28;20340;-81
2023/03/26 09:21:23;;;;;;;;;;;;;;;9.17;80.93;97529.97;5071291;28;19924;-81
2023/03/26 09:23:50;;;;;;;;;;;;;;;9.23;80.74;97528.06;5056645;28;19947;-81
2023/03/26 09:26:42;;;;;;;;;;;;;;;9.19;81.34;97537.66;5069622;28;20364;-81
2023/03/26 09:29:26;;;;;;;;;;;;;;;9.06;82.00;97531.06;5049106;28;19927;-80
2023/03/26 09:32:10;;;;;;;;;;;;;;;9.16;81.11;97530.22;5073136;28;19923;-80
2023/03/26 09:34:41;;;;;;;;;;;;;;;9.12;81.12;97521.19;5069092;28;20548;-80
2023/03/26 09:37:13;;;;;;;;;;;;;;;9.16;81.49;97520.38;5050202;28;20011;-80
2023/03/26 09:39:46;;;;;;;;;;;;;;;9.10;81.53;97521.47;5052702;28;19928;-80
2023/03/26 09:42:30;;;;;;;;;;;;;;;9.02;81.50;97517.47;5070732;28;20295;-81
2023/03/26 09:45:05;;;;;;;;;;;;;;;8.98;81.35;97519.09;5067018;28;19927;-81
2023/03/26 09:47:45;;;;;;;;;;;;;;;9.02;81.12;97514.03;5069546;28;19948;-81
2023/03/26 09:50:30;;;;;;;;;;;;;;;8.95;81.07;97516.94;5050285;28;19924;-81
2023/03/26 09:52:55;;;;;;;;;;;;;;;8.94;81.61;97510.06;5058345;28;20348;-80
2023/03/26 09:55:21;;;;;;;;;;;;;;;9.01;81.09;97512.44;5065696;28;19931;-81
2023/03/26 09:57:52;;;;;;;;;;;;;;;8.99;80.63;97512.72;5058728;28;20356;-81
2023/03/26 10:00:26;;;;;;;;;;;;;;;9.02;80.90;97508.72;5043031;28;19927;-81
2023/03/26 10:02:51;;;;;;;;;;;;;;;9.06;80.71;97513.19;5067007;28;19931;-81
2023/03/26 10:05:37;;;;;;;;;;;;;;;8.99;80.25;97507.38;5068254;28;19924;-81
2023/03/26 10:08:19;;;;;;;;;;;;;;;8.94;81.43;97507.38;5051647;28;21361;-81
2023/03/26 10:10:52;;;;;;;;;;;;;;;9.01;80.87;97507.91;5065304;28;19927;-81
2023/03/26 10:13:24;;;;;;;;;;;;;;;9.03;80.77;97503.13;5066931;28;19920;-81
2023/03/26 10:16:08;;;;;;;;;;;;;;;9.05;80.75;97495.66;5073419;28;20386;-81
2023/03/26 10:18:47;;;;;;;;;;;;;;;9.11;79.83;97491.09;5065713;28;19928;-81
2023/03/26 10:21:20;;;;;;;;;;;;;;;9.10;79.94;97496.69;5034017;28;19928;-81
2023/03/26 10:24:04;;;;;;;;;;;;;;;8.93;80.81;97497.81;5067692;28;19949;-81
2023/03/26 10:26:29;;;;;;;;;;;;;;;8.92;80.83;97498.09;5067694;28;19920;-81
2023/03/26 10:29:07;;;;;;;;;;;;;;;8.97;81.17;97498.06;5071399;28;20437;-81
2023/03/26 10:31:33;;;;;;;;;;;;;;;8.84;82.24;97493.31;5072318;28;19924;-81
2023/03/26 10:34:05;;;;;;;;;;;;;;;9.04;81.11;97496.69;5054554;28;20447;-81
2023/03/26 10:36:35;;;;;;;;;;;;;;;9.00;81.15;97494.84;5051267;28;19935;-81
2023/03/26 10:39:12;;;;;;;;;;;;;;;8.92;81.87;97488.25;5071822;28;19954;-81
2023/03/26 10:41:40;;;;;;;;;;;;;;;9.00;81.32;97490.34;5053752;28;20025;-81
2023/03/26 10:44:24;;;;;;;;;;;;;;;8.97;81.64;97490.09;5072805;28;20091;-81
2023/03/26 10:47:00;;;;;;;;;;;;;;;8.85;82.18;97492.25;5073701;28;19920;-81
2023/03/26 10:49:47;;;;;;;;;;;;;;;8.98;81.66;97489.81;5053945;28;20655;-81
2023/03/26 10:52:17;;;;;;;;;;;;;;;8.98;81.50;97489.00;5077773;28;19924;-82
2023/03/26 10:54:55;;;;;;;;;;;;;;;8.80;82.92;97493.03;5076954;28;19990;-82
2023/03/26 10:57:20;;;;;;;;;;;;;;;8.92;82.02;97492.75;5058802;28;20382;-82
2023/03/26 10:59:45;;;;;;;;;;;;;;;8.86;82.69;97502.63;5061230;28;20011;-81
2023/03/26 11:02:16;;;;;;;;;;;;;;;8.76;82.90;97502.63;5078617;28;19963;-79
2023/03/26 11:04:45;;;;;;;;;;;;;;;8.62;83.91;97506.94;5078628;28;19949;-79
2023/03/26 11:07:13;;;;;;;;;;;;;;;8.52;84.25;97508.81;5087560;28;20571;-79
2023/03/26 11:09:48;;;;;;;;;;;;;;;8.45;84.81;97503.78;5083781;28;20006;-80
2023/03/26 11:12:32;;;;;;;;;;;;;;;8.45;84.90;97495.00;5084094;28;19920;-80
2023/03/26 11:15:06;;;;;;;;;;;;;;;8.09;87.31;97491.50;5084028;28;19916;-79
2023/03/26 11:17:37;;;;;;;;;;;;;;;8.38;85.56;97491.78;5064739;28;19923;-79
2023/03/26 11:20:20;;;;;;;;;;;;;;;8.39;86.37;97493.41;5080215;28;19947;-80
2023/03/26 11:22:51;;;;;;;;;;;;;;;8.15;86.47;97485.13;5086592;28;20291;-79
2023/03/26 11:25:39;;;;;;;;;;;;;;;8.60;84.54;97490.44;5082280;28;20510;-80
2023/03/26 11:28:37;;;;;;;;;;;;;;;8.85;83.62;97494.91;5081387;28;20745;-79
2023/03/26 11:31:05;;;;;;;;;;;;;;;8.78;83.98;97497.06;5047406;28;20407;-80
2023/03/26 11:33:36;;;;;;;;;;;;;;;8.79;84.13;97502.09;5084254;28;21310;-80
2023/03/26 11:36:10;;;;;;;;;;;;;;;8.64;84.47;97501.34;5076965;28;19931;-80
2023/03/26 11:38:42;;;;;;;;;;;;;;;8.71;84.76;97501.88;5090832;28;20375;-80
2023/03/26 11:41:15;;;;;;;;;;;;;;;8.61;84.58;97494.69;5087166;28;19935;-80
2023/03/26 11:43:43;;;;;;;;;;;;;;;8.68;84.98;97491.75;5089328;28;19965;-80
2023/03/26 11:46:11;;;;;;;;;;;;;;;8.45;85.39;97495.78;5082408;28;20011;-80
2023/03/26 11:48:45;;;;;;;;;;;;;;;8.61;85.23;97499.19;5075266;28;19924;-80
2023/03/26 11:51:13;;;;;;;;;;;;;;;8.73;84.45;97495.22;5090387;28;19947;-80
2023/03/26 11:53:39;;;;;;;;;;;;;;;8.72;84.72;97492.81;5089467;28;20492;-79
2023/03/26 11:56:22;;;;;;;;;;;;;;;8.71;83.78;97497.34;5076070;28;19952;-80
2023/03/26 11:58:53;;;;;;;;;;;;;;;8.66;84.26;97502.66;5093770;28;19931;-80
2023/03/26 12:01:28;;;;;;;;;;;;;;;8.56;84.44;97497.34;5095114;28;19916;-80
2023/03/26 12:04:05;;;;;;;;;;;;;;;8.49;84.98;97499.50;5072564;28;19924;-79
2023/03/26 12:06:33;;;;;;;;;;;;;;;8.28;85.87;97496.06;5068143;28;19928;-79
2023/03/26 12:08:58;;;;;;;;;;;;;;;8.42;85.82;97487.53;5052990;28;19924;-79
2023/03/26 12:11:28;;;;;;;;;;;;;;;8.41;86.12;97492.06;5070093;28;19923;-80
2023/03/26 12:14:00;;;;;;;;;;;;;;;8.47;85.12;97485.69;5087911;28;19916;-79
2023/03/26 12:16:26;;;;;;;;;;;;;;;8.51;85.66;97481.41;5079464;28;20411;-79
2023/03/26 12:19:17;;;;;;;;;;;;;;;8.55;85.06;97484.31;5081219;28;19928;-80
2023/03/26 12:21:47;;;;;;;;;;;;;;;8.60;84.78;97484.31;5083425;28;19942;-78
2023/03/26 12:24:24;;;;;;;;;;;;;;;8.49;83.92;97474.78;5085373;28;20437;-79
2023/03/26 12:26:55;;;;;;;;;;;;;;;8.35;85.78;97474.50;5070330;28;19923;-79
2023/03/26 12:29:22;;;;;;;;;;;;;;;8.37;86.07;97469.72;5071825;28;19977;-79
2023/03/26 12:31:47;;;;;;;;;;;;;;;8.38;86.71;97474.00;5088333;28;19920;-80
2023/03/26 12:34:14;;;;;;;;;;;;;;;8.30;87.07;97479.81;5093780;28;20447;-80
2023/03/26 12:36:47;;;;;;;;;;;;;;;8.32;85.96;97467.88;5099276;28;19923;-79
2023/03/26 12:39:32;;;;;;;;;;;;;;;8.56;84.92;97481.38;5089692;28;19924;-79
2023/03/26 12:41:58;;;;;;;;;;;;;;;8.25;86.63;97464.72;5086426;28;20435;-79
2023/03/26 12:44:34;;;;;;;;;;;;;;;8.15;87.24;97467.31;5089027;28;20000;-78
2023/03/26 12:47:07;;;;;;;;;;;;;;;8.47;85.34;97467.06;5083931;28;19920;-78
2023/03/26 12:49:33;;;;;;;;;;;;;;;8.53;85.66;97462.53;5090143;28;19927;-79
2023/03/26 12:52:13;;;;;;;;;;;;;;;8.68;84.55;97460.63;5073327;28;19919;-79
2023/03/26 12:54:47;;;;;;;;;;;;;;;8.43;86.25;97463.31;5088282;28;19920;-79
2023/03/26 12:57:20;;;;;;;;;;;;;;;8.61;85.46;97457.44;5090444;28;19920;-80
2023/03/26 12:59:51;;;;;;;;;;;;;;;8.41;87.11;97456.72;5090959;28;19924;-79
2023/03/26 13:02:27;;;;;;;;;;;;;;;8.53;86.05;97451.88;5087499;28;20048;-79
2023/03/26 13:05:12;;;;;;;;;;;;;;;8.81;83.74;97453.94;5087848;28;20034;-79
2023/03/26 13:07:38;;;;;;;;;;;;;;;8.29;88.14;97446.34;5071831;28;19916;-79
2023/03/26 13:10:10;;;;;;;;;;;;;;;8.23;88.39;97447.41;5091085;28;19920;-79
2023/03/26 13:12:44;;;;;;;;;;;;;;;8.75;84.34;97447.84;5091893;28;19936;-79